createdAt,value
2023-04-22T00:02:08.141Z,6.21
2023-04-22T00:04:41.800Z,6.14
2023-04-22T00:07:15.060Z,6.08
2023-04-22T00:09:47.435Z,6.03
2023-04-22T00:12:20.070Z,5.99
2023-04-22T00:14:52.780Z,5.97
2023-04-22T00:17:25.317Z,5.97
2023-04-22T00:19:57.940Z,5.98
2023-04-22T00:22:30.521Z,5.99
2023-04-22T00:25:02.823Z,6.01
2023-04-22T00:27:36.031Z,6.01
2023-04-22T00:30:11.091Z,6.02
2023-04-22T00:32:43.991Z,6.08
2023-04-22T00:35:16.537Z,6.12
2023-04-22T00:37:48.922Z,6.13
2023-04-22T00:40:21.848Z,6.19
2023-04-22T00:42:54.883Z,6.23
2023-04-22T00:45:29.065Z,6.26
2023-04-22T00:48:01.864Z,6.28
2023-04-22T00:50:35.009Z,6.27
2023-04-22T00:53:07.284Z,6.26
2023-04-22T00:55:39.513Z,6.26
2023-04-22T00:58:12.864Z,6.26
2023-04-22T01:00:45.451Z,6.26
2023-04-22T01:03:18.393Z,6.27
2023-04-22T01:05:52.651Z,6.29
2023-04-22T01:08:30.227Z,6.31
2023-04-22T01:11:03.588Z,6.33
2023-04-22T01:13:38.557Z,6.34
2023-04-22T01:16:12.147Z,6.34
2023-04-22T01:18:47.762Z,6.28
2023-04-22T01:21:20.704Z,6.20
2023-04-22T01:23:54.717Z,6.11
2023-04-22T01:26:29.621Z,5.98
2023-04-22T01:29:03.043Z,5.90
2023-04-22T01:31:36.439Z,5.89
2023-04-22T01:34:10.627Z,5.88
2023-04-22T01:36:42.996Z,5.88
2023-04-22T01:39:16.123Z,5.88
2023-04-22T01:41:49.219Z,5.89
2023-04-22T01:44:21.949Z,5.84
2023-04-22T01:46:55.672Z,5.73
2023-04-22T01:49:28.355Z,5.66
2023-04-22T01:52:01.567Z,5.68
2023-04-22T01:54:37.093Z,5.73
2023-04-22T01:57:14.441Z,5.75
2023-04-22T01:59:47.881Z,5.76
2023-04-22T02:02:20.856Z,5.72
2023-04-22T02:04:53.562Z,5.55
2023-04-22T02:07:27.031Z,5.36
2023-04-22T02:09:59.159Z,5.24
2023-04-22T02:12:31.586Z,5.23
2023-04-22T02:15:04.589Z,5.23
2023-04-22T02:17:42.478Z,5.15
2023-04-22T02:20:15.882Z,5.06
2023-04-22T02:22:50.939Z,4.95
2023-04-22T02:25:25.215Z,4.87
2023-04-22T02:27:57.632Z,4.83
2023-04-22T02:30:30.470Z,4.82
2023-04-22T02:33:04.134Z,4.91
2023-04-22T02:35:45.363Z,5.03
2023-04-22T02:38:22.056Z,5.14
2023-04-22T02:40:54.697Z,5.20
2023-04-22T02:43:27.112Z,5.14
2023-04-22T02:45:59.750Z,5.01
2023-04-22T02:48:32.286Z,4.87
2023-04-22T02:51:04.501Z,4.79
2023-04-22T02:53:37.418Z,4.80
2023-04-22T02:56:10.410Z,4.82
2023-04-22T02:58:42.787Z,4.79
2023-04-22T03:01:15.702Z,4.70
2023-04-22T03:03:48.760Z,4.60
2023-04-22T03:06:26.111Z,4.53
2023-04-22T03:08:58.432Z,4.48
2023-04-22T03:11:30.837Z,4.44
2023-04-22T03:14:03.223Z,4.41
2023-04-22T03:16:36.429Z,4.46
2023-04-22T03:19:10.049Z,4.49
2023-04-22T03:21:42.958Z,4.44
2023-04-22T03:24:15.264Z,4.39
2023-04-22T03:26:50.640Z,4.41
2023-04-22T03:29:23.114Z,4.46
2023-04-22T03:31:55.421Z,4.52
2023-04-22T03:34:29.838Z,4.56
2023-04-22T03:37:02.229Z,4.60
2023-04-22T03:39:37.255Z,4.64
2023-04-22T03:42:11.621Z,4.63
2023-04-22T03:44:46.280Z,4.54
2023-04-22T03:47:21.437Z,4.56
2023-04-22T03:49:59.797Z,4.65
2023-04-22T03:52:32.255Z,4.65
2023-04-22T03:55:04.564Z,4.59
2023-04-22T03:57:37.669Z,4.56
2023-04-22T04:00:12.667Z,4.61
2023-04-22T04:02:48.311Z,4.56
2023-04-22T04:05:22.225Z,4.48
2023-04-22T04:07:54.704Z,4.45
2023-04-22T04:10:29.158Z,4.47
2023-04-22T04:13:01.747Z,4.49
2023-04-22T04:15:37.770Z,4.52
2023-04-22T04:18:11.828Z,4.61
2023-04-22T04:20:44.252Z,4.63
2023-04-22T04:23:16.765Z,4.64
2023-04-22T04:25:50.063Z,4.99
2023-04-22T04:28:23.520Z,6.00
2023-04-22T04:30:55.942Z,7.07
2023-04-22T04:33:28.883Z,7.33
2023-04-22T04:36:02.051Z,7.13
2023-04-22T04:38:36.691Z,6.97
2023-04-22T04:41:10.903Z,7.00
2023-04-22T04:43:46.664Z,7.73
2023-04-22T04:46:37.996Z,9.25
2023-04-22T04:49:12.813Z,10.58
2023-04-22T04:52:01.328Z,11.72
2023-04-22T04:54:34.329Z,12.78
2023-04-22T04:57:07.888Z,13.81
2023-04-22T04:59:41.656Z,14.82
2023-04-22T05:02:14.540Z,15.91
2023-04-22T05:04:48.056Z,16.81
2023-04-22T05:07:20.733Z,17.33
2023-04-22T05:09:53.896Z,17.29
2023-04-22T05:12:26.883Z,16.98
2023-04-22T05:14:59.522Z,16.51
2023-04-22T05:17:32.996Z,16.53
2023-04-22T05:20:09.756Z,17.42
2023-04-22T05:22:43.400Z,18.21
2023-04-22T05:25:16.252Z,18.96
2023-04-22T05:27:55.558Z,19.26
2023-04-22T05:30:29.599Z,19.43
2023-04-22T05:33:01.985Z,19.68
2023-04-22T05:35:34.343Z,19.55
2023-04-22T05:38:07.012Z,19.14
2023-04-22T05:40:41.052Z,18.75
2023-04-22T05:43:16.983Z,18.42
2023-04-22T05:45:54.142Z,18.00
2023-04-22T05:48:26.842Z,17.88
2023-04-22T05:51:04.721Z,17.88
2023-04-22T05:53:37.546Z,17.97
2023-04-22T05:56:10.601Z,18.36
2023-04-22T05:58:42.968Z,18.65
2023-04-22T06:01:20.950Z,18.65
2023-04-22T06:04:11.937Z,18.21
2023-04-22T06:06:44.340Z,17.66
2023-04-22T06:09:19.270Z,17.12
2023-04-22T06:11:53.295Z,16.80
2023-04-22T06:14:27.727Z,16.39
2023-04-22T06:17:09.890Z,16.03
2023-04-22T06:19:42.230Z,15.66
2023-04-22T06:22:14.798Z,15.40
2023-04-22T06:24:48.319Z,15.20
2023-04-22T06:27:21.392Z,15.04
2023-04-22T06:29:53.450Z,15.09
2023-04-22T06:32:26.145Z,14.95
2023-04-22T06:34:58.936Z,14.71
2023-04-22T06:37:33.335Z,14.64
2023-04-22T06:40:08.517Z,14.98
2023-04-22T06:42:59.984Z,15.58
2023-04-22T06:45:52.542Z,16.44
2023-04-22T06:49:03.127Z,17.16
2023-04-22T06:51:54.250Z,17.85
2023-04-22T06:54:26.543Z,18.18
2023-04-22T06:56:59.178Z,18.41
2023-04-22T06:59:31.236Z,18.67
2023-04-22T07:02:03.680Z,18.98
2023-04-22T07:04:37.621Z,19.26
2023-04-22T07:07:10.150Z,19.50
2023-04-22T07:09:42.558Z,19.63
2023-04-22T07:12:15.104Z,19.83
2023-04-22T07:14:47.832Z,20.07
2023-04-22T07:17:22.536Z,20.29
2023-04-22T07:19:54.817Z,20.42
2023-04-22T07:22:26.905Z,20.50
2023-04-22T07:24:58.978Z,20.43
2023-04-22T07:27:31.031Z,20.44
2023-04-22T07:30:03.303Z,20.47
2023-04-22T07:32:35.382Z,20.17
2023-04-22T07:35:08.749Z,19.78
2023-04-22T07:37:41.052Z,19.49
2023-04-22T07:40:14.764Z,19.18
2023-04-22T07:42:48.385Z,18.91
2023-04-22T07:45:20.640Z,18.78
2023-04-22T07:47:52.920Z,18.71
2023-04-22T07:50:25.385Z,18.61
2023-04-22T07:52:57.461Z,18.59
2023-04-22T07:55:29.827Z,18.57
2023-04-22T07:58:06.707Z,18.67
2023-04-22T08:00:39.613Z,18.91
2023-04-22T08:03:12.207Z,19.11
2023-04-22T08:05:44.648Z,19.26
2023-04-22T08:08:16.875Z,19.48
2023-04-22T08:10:49.047Z,19.54
2023-04-22T08:13:21.323Z,19.67
2023-04-22T08:15:54.160Z,19.73
2023-04-22T08:18:26.303Z,19.77
2023-04-22T08:20:58.910Z,19.83
2023-04-22T08:23:31.510Z,19.84
2023-04-22T08:26:04.748Z,19.78
2023-04-22T08:28:38.659Z,19.55
2023-04-22T08:31:13.250Z,19.33
2023-04-22T08:33:45.195Z,19.24
2023-04-22T08:36:22.876Z,19.37
2023-04-22T08:38:56.709Z,19.71
2023-04-22T08:41:29.916Z,19.97
2023-04-22T08:44:04.395Z,20.37
2023-04-22T08:46:41.941Z,20.76
2023-04-22T08:49:16.154Z,21.16
2023-04-22T08:51:50.495Z,21.47
2023-04-22T08:54:22.623Z,21.70
2023-04-22T08:56:57.900Z,21.87
2023-04-22T08:59:32.920Z,21.92
2023-04-22T09:02:06.664Z,21.95
2023-04-22T09:04:39.249Z,22.13
2023-04-22T09:07:12.140Z,22.42
2023-04-22T09:09:48.227Z,22.73
2023-04-22T09:12:20.421Z,22.88
2023-04-22T09:14:52.389Z,22.91
2023-04-22T09:17:33.927Z,23.10
2023-04-22T09:20:09.064Z,23.14
2023-04-22T09:22:43.988Z,23.15
2023-04-22T09:25:20.785Z,23.38
2023-04-22T09:27:54.329Z,23.50
2023-04-22T09:30:28.753Z,23.47
2023-04-22T09:33:05.115Z,23.62
2023-04-22T09:35:38.549Z,23.74
2023-04-22T09:38:12.972Z,23.83
2023-04-22T09:40:48.728Z,24.04
2023-04-22T09:43:22.013Z,24.07
2023-04-22T09:45:54.276Z,24.05
2023-04-22T09:48:26.822Z,24.22
2023-04-22T09:50:59.049Z,24.47
2023-04-22T09:53:38.581Z,24.80
2023-04-22T09:56:11.513Z,24.98
2023-04-22T09:58:46.202Z,24.81
2023-04-22T10:01:19.244Z,24.56
2023-04-22T10:03:52.656Z,24.61
2023-04-22T10:06:28.938Z,24.66
2023-04-22T10:09:02.772Z,24.74
2023-04-22T10:11:43.262Z,24.93
2023-04-22T10:14:17.509Z,24.88
2023-04-22T10:16:52.584Z,24.90
2023-04-22T10:19:27.908Z,24.91
2023-04-22T10:22:02.482Z,24.72
2023-04-22T10:24:42.339Z,24.62
2023-04-22T10:27:14.910Z,24.57
2023-04-22T10:29:51.095Z,24.37
2023-04-22T10:32:34.255Z,24.16
2023-04-22T10:35:16.608Z,24.08
2023-04-22T10:37:49.585Z,24.07
2023-04-22T10:40:23.420Z,24.05
2023-04-22T10:43:03.664Z,24.18
2023-04-22T10:45:39.611Z,24.29
2023-04-22T10:48:11.990Z,24.48
2023-04-22T10:50:44.971Z,24.65
2023-04-22T10:53:44.071Z,24.70
2023-04-22T10:56:21.363Z,24.72
2023-04-22T10:58:58.565Z,24.77
2023-04-22T11:01:36.875Z,24.82
2023-04-22T11:04:24.517Z,24.74
2023-04-22T11:07:17.393Z,24.84
2023-04-22T11:09:53.600Z,25.04
2023-04-22T11:12:46.707Z,25.11
2023-04-22T11:15:22.426Z,24.94
2023-04-22T11:17:56.387Z,24.62
2023-04-22T11:20:32.594Z,24.48
2023-04-22T11:23:05.891Z,24.41
2023-04-22T11:25:41.510Z,24.42
2023-04-22T11:28:15.762Z,24.48
2023-04-22T11:30:48.061Z,24.43
2023-04-22T11:33:22.868Z,24.36
2023-04-22T11:35:55.653Z,24.31
2023-04-22T11:38:28.747Z,24.36
2023-04-22T11:41:02.047Z,24.41
2023-04-22T11:43:34.404Z,24.40
2023-04-22T11:46:09.061Z,24.36
2023-04-22T11:48:41.906Z,24.30
2023-04-22T11:51:14.885Z,24.27
2023-04-22T11:53:54.748Z,24.31
2023-04-22T11:56:28.242Z,24.44
2023-04-22T11:59:01.675Z,24.50
2023-04-22T12:01:38.936Z,24.58
2023-04-22T12:04:13.991Z,24.60
2023-04-22T12:06:47.702Z,24.63
2023-04-22T12:09:20.083Z,24.69
2023-04-22T12:11:54.942Z,24.70
2023-04-22T12:14:36.728Z,24.72
2023-04-22T12:17:12.551Z,24.59
2023-04-22T12:19:54.908Z,24.25
2023-04-22T12:22:33.730Z,24.04
2023-04-22T12:25:12.501Z,24.13
2023-04-22T12:27:44.612Z,24.30
2023-04-22T12:30:18.057Z,24.11
2023-04-22T12:32:50.281Z,23.91
2023-04-22T12:35:23.099Z,23.80
2023-04-22T12:37:55.353Z,24.00
2023-04-22T12:40:28.032Z,24.18
2023-04-22T12:43:00.107Z,24.34
2023-04-22T12:45:32.618Z,24.34
2023-04-22T12:48:05.298Z,24.16
2023-04-22T12:50:38.136Z,23.92
2023-04-22T12:53:10.516Z,23.85
2023-04-22T12:55:44.677Z,23.78
2023-04-22T12:58:18.946Z,23.63
2023-04-22T13:00:51.623Z,23.58
2023-04-22T13:03:24.026Z,23.50
2023-04-22T13:05:56.982Z,23.53
2023-04-22T13:08:30.896Z,23.50
2023-04-22T13:11:03.191Z,23.42
2023-04-22T13:13:43.897Z,23.38
2023-04-22T13:17:19.124Z,23.30
2023-04-22T13:20:16.449Z,23.04
2023-04-22T13:23:09.927Z,22.86
2023-04-22T13:26:14.893Z,22.77
2023-04-22T13:29:17.948Z,22.63
2023-04-22T13:32:11.280Z,22.50
2023-04-22T13:34:57.811Z,22.49
2023-04-22T13:37:49.465Z,22.46
2023-04-22T13:40:55.520Z,22.44
2023-04-22T13:43:51.989Z,22.41
2023-04-22T13:46:45.930Z,22.26
2023-04-22T13:49:39.096Z,22.28
2023-04-22T13:52:32.355Z,22.26
2023-04-22T13:55:26.963Z,22.24
2023-04-22T13:58:19.690Z,22.25
2023-04-22T14:01:12.477Z,22.23
2023-04-22T14:04:05.405Z,22.22
2023-04-22T14:06:37.885Z,22.10
2023-04-22T14:09:41.162Z,21.91
2023-04-22T14:12:36.233Z,21.72
2023-04-22T14:15:28.725Z,21.68
2023-04-22T14:18:43.011Z,21.68
2023-04-22T14:21:36.362Z,21.64
2023-04-22T14:24:32.599Z,21.62
2023-04-22T14:27:33.847Z,21.59
2023-04-22T14:30:27.040Z,21.54
2023-04-22T14:33:21.184Z,21.57
2023-04-22T14:36:14.451Z,21.51
2023-04-22T14:39:07.320Z,21.42
2023-04-22T14:41:51.144Z,21.32
2023-04-22T14:44:44.345Z,21.32
2023-04-22T14:47:37.992Z,21.31
2023-04-22T14:50:36.269Z,21.32
2023-04-22T14:53:36.642Z,21.33
2023-04-22T14:56:31.117Z,21.36
2023-04-22T14:59:25.767Z,21.39
2023-04-22T15:02:18.470Z,21.27
2023-04-22T15:05:12.901Z,21.06
2023-04-22T15:08:06.705Z,21.02
2023-04-22T15:11:00.075Z,20.98
2023-04-22T15:13:53.509Z,20.91
2023-04-22T15:16:46.798Z,20.81
2023-04-22T15:19:40.857Z,20.73
2023-04-22T15:22:34.843Z,20.59
2023-04-22T15:25:27.634Z,20.45
2023-04-22T15:28:42.892Z,20.36
2023-04-22T15:31:56.922Z,20.37
2023-04-22T15:34:50.182Z,20.31
2023-04-22T15:37:43.656Z,20.17
2023-04-22T15:40:36.588Z,20.08
2023-04-22T15:43:34.175Z,20.01
2023-04-22T15:46:33.490Z,19.98
2023-04-22T15:49:26.992Z,19.95
2023-04-22T15:52:20.105Z,19.91
2023-04-22T15:55:04.476Z,19.85
2023-04-22T15:57:47.247Z,19.83
2023-04-22T16:00:41.674Z,19.79
2023-04-22T16:03:35.564Z,19.76
2023-04-22T16:06:28.330Z,19.65
2023-04-22T16:09:21.759Z,19.52
2023-04-22T16:12:15.054Z,19.40
2023-04-22T16:15:09.583Z,19.31
2023-04-22T16:18:04.869Z,19.23
2023-04-22T16:20:58.015Z,19.18
2023-04-22T16:23:53.532Z,19.14
2023-04-22T16:26:46.041Z,19.08
2023-04-22T16:29:39.296Z,19.00
2023-04-22T16:32:32.699Z,18.92
2023-04-22T16:35:25.780Z,18.82
2023-04-22T16:38:19.384Z,18.71
2023-04-22T16:41:12.815Z,18.59
2023-04-22T16:44:06.089Z,18.51
2023-04-22T16:46:58.824Z,18.41
2023-04-22T16:49:51.656Z,18.29
2023-04-22T16:52:44.274Z,18.18
2023-04-22T16:55:38.106Z,18.07
2023-04-22T16:58:20.804Z,17.97
2023-04-22T17:01:06.522Z,17.85
2023-04-22T17:03:59.395Z,17.70
2023-04-22T17:06:43.811Z,17.56
2023-04-22T17:09:37.701Z,17.41
2023-04-22T17:12:20.523Z,17.25
2023-04-22T17:15:14.042Z,17.10
2023-04-22T17:18:08.116Z,16.92
2023-04-22T17:21:05.255Z,16.72
2023-04-22T17:23:59.586Z,16.51
2023-04-22T17:26:52.931Z,16.32
2023-04-22T17:29:46.711Z,16.18
2023-04-22T17:32:40.158Z,16.07
2023-04-22T17:35:34.548Z,15.91
2023-04-22T17:38:28.562Z,15.80
2023-04-22T17:41:21.830Z,15.64
2023-04-22T17:44:15.114Z,15.46
2023-04-22T17:47:07.985Z,15.26
2023-04-22T17:50:01.517Z,15.08
2023-04-22T17:52:53.924Z,14.95
2023-04-22T17:55:48.109Z,14.80
2023-04-22T17:58:54.038Z,14.60
2023-04-22T18:01:46.742Z,14.38
2023-04-22T18:04:39.564Z,14.21
2023-04-22T18:07:32.438Z,14.05
2023-04-22T18:10:25.100Z,13.88
2023-04-22T18:13:18.147Z,13.73
2023-04-22T18:16:10.620Z,13.56
2023-04-22T18:19:06.851Z,13.43
2023-04-22T18:22:00.607Z,13.34
2023-04-22T18:24:54.213Z,13.27
2023-04-22T18:27:47.764Z,13.16
2023-04-22T18:30:41.671Z,13.05
2023-04-22T18:33:36.082Z,12.95
2023-04-22T18:36:29.465Z,12.84
2023-04-22T18:39:22.816Z,12.74
2023-04-22T18:42:16.393Z,12.66
2023-04-22T18:45:13.407Z,12.57
2023-04-22T18:48:07.225Z,12.47
2023-04-22T18:51:01.686Z,12.33
2023-04-22T18:53:56.911Z,12.10
2023-04-22T18:56:50.236Z,11.94
2023-04-22T18:59:43.348Z,11.91
2023-04-22T19:02:38.586Z,11.89
2023-04-22T19:05:36.069Z,11.84
2023-04-22T19:08:29.457Z,11.74
2023-04-22T19:11:22.578Z,11.63
2023-04-22T19:14:16.477Z,11.47
2023-04-22T19:17:09.813Z,11.31
2023-04-22T19:20:02.678Z,11.20
2023-04-22T19:22:55.694Z,11.15
2023-04-22T19:25:39.114Z,11.13
2023-04-22T19:28:32.508Z,11.11
2023-04-22T19:31:25.641Z,11.03
2023-04-22T19:34:19.153Z,10.94
2023-04-22T19:37:13.125Z,10.85
2023-04-22T19:40:08.722Z,10.77
2023-04-22T19:43:01.109Z,10.64
2023-04-22T19:45:58.503Z,10.49
2023-04-22T19:48:52.848Z,10.36
2023-04-22T19:51:48.170Z,10.25
2023-04-22T19:54:42.605Z,10.16
2023-04-22T19:58:39.111Z,10.08
2023-04-22T20:00:53.425Z,10.01
2023-04-22T20:03:48.584Z,10.02
2023-04-22T20:06:42.373Z,10.06
2023-04-22T20:09:37.478Z,10.07
2023-04-22T20:12:31.019Z,10.04
2023-04-22T20:15:25.653Z,9.97
2023-04-22T20:18:12.235Z,9.91
2023-04-22T20:21:08.352Z,9.85
2023-04-22T20:24:04.371Z,9.79
2023-04-22T20:27:01.071Z,9.71
2023-04-22T20:29:57.055Z,9.68
2023-04-22T20:32:49.909Z,9.60
2023-04-22T20:35:48.295Z,9.54
2023-04-22T20:38:37.178Z,9.54
2023-04-22T20:41:30.859Z,9.51
2023-04-22T20:44:14.505Z,9.47
2023-04-22T20:47:08.171Z,9.42
2023-04-22T20:50:01.399Z,9.35
2023-04-22T20:52:53.824Z,9.31
2023-04-22T20:55:39.885Z,9.29
2023-04-22T20:58:34.037Z,9.28
2023-04-22T21:01:27.676Z,9.26
2023-04-22T21:04:24.893Z,9.22
2023-04-22T21:07:14.352Z,9.19
2023-04-22T21:10:08.704Z,9.16
2023-04-22T21:13:01.752Z,9.12
2023-04-22T21:15:52.920Z,9.09
2023-04-22T21:18:47.182Z,9.05
2023-04-22T21:21:42.977Z,9.01
2023-04-22T21:24:37.410Z,8.98
2023-04-22T21:27:22.804Z,8.94
2023-04-22T21:30:17.885Z,8.90
2023-04-22T21:33:10.303Z,8.89
2023-04-22T21:36:03.254Z,8.87
2023-04-22T21:38:57.095Z,8.83
2023-04-22T21:41:50.123Z,8.78
2023-04-22T21:44:49.948Z,8.74
2023-04-22T21:47:43.813Z,8.69
2023-04-22T21:50:37.366Z,8.63
2023-04-22T21:53:30.243Z,8.55
2023-04-22T21:56:22.979Z,8.47
2023-04-22T21:59:17.909Z,8.43
2023-04-22T22:02:11.293Z,8.40
2023-04-22T22:05:04.785Z,8.39
2023-04-22T22:07:48.974Z,8.37
2023-04-22T22:10:43.149Z,8.38
2023-04-22T22:13:35.598Z,8.36
2023-04-22T22:16:28.406Z,8.32
2023-04-22T22:19:29.217Z,8.24
2023-04-22T22:22:26.454Z,8.18
2023-04-22T22:25:15.236Z,8.13
2023-04-22T22:28:07.846Z,8.10
2023-04-22T22:31:02.659Z,8.07
2023-04-22T22:33:46.351Z,8.05
2023-04-22T22:36:38.997Z,8.03
2023-04-22T22:39:34.503Z,8.03
2023-04-22T22:42:29.037Z,8.03
2023-04-22T22:45:22.818Z,8.03
2023-04-22T22:48:05.787Z,8.07
2023-04-22T22:50:59.322Z,8.09
2023-04-22T22:53:54.314Z,8.07
2023-04-22T22:56:48.750Z,8.03
2023-04-22T22:59:21.493Z,8.00
2023-04-22T23:02:15.156Z,7.97
2023-04-22T23:05:11.758Z,7.95
2023-04-22T23:07:54.612Z,7.91
2023-04-22T23:10:47.756Z,7.88
2023-04-22T23:13:41.510Z,7.83
2023-04-22T23:16:39.975Z,7.78
2023-04-22T23:19:34.536Z,7.73
2023-04-22T23:22:27.958Z,7.69
2023-04-22T23:25:23.111Z,7.67
2023-04-22T23:28:07.107Z,7.68
2023-04-22T23:31:04.568Z,7.67
2023-04-22T23:33:53.583Z,7.68
2023-04-22T23:36:48.319Z,7.69
2023-04-22T23:39:43.609Z,7.70
2023-04-22T23:42:39.571Z,7.70
2023-04-22T23:45:34.308Z,7.67
2023-04-22T23:48:29.826Z,7.64
2023-04-22T23:51:44.095Z,7.60
2023-04-22T23:54:18.006Z,7.56
2023-04-22T23:57:13.765Z,7.52
